Hlavní strana
METAR-TAF:

METAR-TAF

Letiště :

Bilbao, Španělsko

zeměpisná šířka: 43-18N, zeměpisná délka: 002-56W, výška: 42 m

Aktuální stav počasí

Zpráva byla vytvořena před 23 minutami, v 09:30 UTC
vítr z různých směrů 1 kt
Teplota 19°C
Vlhkost vzduchu 60%
Tlak 1019 hPa
Viditelnost 10 km a více
Žádná oblačnost pod 1500 m, nevyskytují se cumulonimby.

METAR: LEBB 100930Z VRB01KT CAVOK 19/11 Q1019 NOSIG

Čas: 11:53 (09:53 UTC)

Předpověď počasí

Zpráva byla vytvořena před 4 hodinami a 53 minutami, v 05:00 UTC
Předpověď platná od 10 v 06 UTC do 11 v 06 UTC
Východojihovýchodní vítr 8 kt
Viditelnost 10 km a více
Polojasno ve výšce 5000 ft
Dočasný
od 10 v 12 UTC do 10 v 18 UTC
Severozápadní vítr 8 kt
Dočasný
od 10 v 18 UTC do 11 v 06 UTC
Oblačno až skoro zataženo ve výšce 1000 ft
déšť

TAF: LEBB 100500Z 1006/1106 12008KT 9999 SCT050 TX21/1014Z TN13/1106Z TEMPO 1012/1018 32008KT TEMPO 1018/1106 RA BKN010

Stav a předpovědi počasí z více než 4 000 letišť (zprávy METAR a TAF).

Červené a žluté tečky na mapě představují dostupné meteorologické stanice.

Když kurzor umístíte na tečku, zobrazí se název stanice.

Pak kliknutím zobrazíte stav a předpověď počasí.

Chcete-li změnit mapu, kliknutím na zelené tlačítko se znaménkem +mapu přiblížíte, kliknutím na zelené tlačítko se znaménkem – mapu oddálíte a kliknutím na zelené šipky přejdete na sousední mapy.


METAR-TAF: